New Seabury, Massachusetts
Current Conditions -  °F | °C
As of 9:55 AM on Monday 24 Nov 2014 (Local Time) from KFMH Reporting Station
Haze Haze  
Wind Chill: 59°   Ceiling: 400
Heat Index: 59°   Visibility: 1.7mi
Dew Point: 57°   Wind: 29mph
Humidity: 94%   Direction: 170°S
Pressure: 29.8"   Gusts: 37mph
Location:  41.6167°N, 70.4906°W
Report Text: KFMH 241455Z AUTO 17025G32KT 1 3/4SM BR OVC004 15/14 A2980 RMK AO2
Loading
Personal Weather Stations






























Interactive Weather Map New forecast layout! Learn more

10-Day Weather Forecast

Advertisements
Track Severe Weather on mobile